createdAt,value
2018-06-27T00:00:58.693Z,18.25
2018-06-27T00:01:58.767Z,18.22
2018-06-27T00:02:58.792Z,18.22
2018-06-27T00:03:58.843Z,18.24
2018-06-27T00:04:58.916Z,18.22
2018-06-27T00:05:58.951Z,18.21
2018-06-27T00:06:58.992Z,18.12
2018-06-27T00:07:59.071Z,18.15
2018-06-27T00:08:59.094Z,18.18
2018-06-27T00:09:59.146Z,18.19
2018-06-27T00:10:59.220Z,18.13
2018-06-27T00:11:59.248Z,18.03
2018-06-27T00:12:59.295Z,18.02
2018-06-27T00:13:59.374Z,18.03
2018-06-27T00:15:00.311Z,17.97
2018-06-27T00:15:59.448Z,18.03
2018-06-27T00:16:59.499Z,17.99
2018-06-27T00:17:59.547Z,18.00
2018-06-27T00:18:59.618Z,18.02
2018-06-27T00:19:59.648Z,17.97
2018-06-27T00:20:59.720Z,17.85
2018-06-27T00:21:59.745Z,17.88
2018-06-27T00:22:59.799Z,17.94
2018-06-27T00:23:59.892Z,17.91
2018-06-27T00:24:59.897Z,17.85
2018-06-27T00:25:59.951Z,17.84
2018-06-27T00:26:59.999Z,17.73
2018-06-27T00:28:00.050Z,17.74
2018-06-27T00:29:00.152Z,17.71
2018-06-27T00:30:00.148Z,17.71
2018-06-27T00:31:00.196Z,17.69
2018-06-27T00:32:00.247Z,17.70
2018-06-27T00:33:00.295Z,17.67
2018-06-27T00:34:00.392Z,17.69
2018-06-27T00:35:00.397Z,17.71
2018-06-27T00:36:00.451Z,17.69
2018-06-27T00:37:00.496Z,17.67
2018-06-27T00:38:00.549Z,17.69
2018-06-27T00:39:00.640Z,17.63
2018-06-27T00:40:00.647Z,17.66
2018-06-27T00:41:00.696Z,17.74
2018-06-27T00:42:00.748Z,17.73
2018-06-27T00:43:00.797Z,17.73
2018-06-27T00:44:00.889Z,17.73
2018-06-27T00:45:00.896Z,17.69
2018-06-27T00:46:00.947Z,17.71
2018-06-27T00:47:00.998Z,17.69
2018-06-27T00:48:01.046Z,17.66
2018-06-27T00:49:01.124Z,17.71
2018-06-27T00:50:01.168Z,17.71
2018-06-27T00:51:01.198Z,17.69
2018-06-27T00:52:01.246Z,17.71
2018-06-27T00:53:01.294Z,17.64
2018-06-27T00:54:01.349Z,17.70
2018-06-27T00:55:01.418Z,17.67
2018-06-27T00:56:01.468Z,17.62
2018-06-27T00:57:01.496Z,17.59
2018-06-27T00:58:01.546Z,17.55
2018-06-27T00:59:01.594Z,17.59
2018-06-27T01:00:01.690Z,17.51
2018-06-27T01:01:01.698Z,17.63
2018-06-27T01:02:01.746Z,17.47
2018-06-27T01:03:01.792Z,17.54
2018-06-27T01:04:01.849Z,17.47
2018-06-27T01:05:01.918Z,17.48
2018-06-27T01:06:01.945Z,17.46
2018-06-27T01:07:02.019Z,17.53
2018-06-27T01:08:02.065Z,17.43
2018-06-27T01:09:02.094Z,17.51
2018-06-27T01:10:02.143Z,17.51
2018-06-27T01:11:02.216Z,17.53
2018-06-27T01:12:02.244Z,17.47
2018-06-27T01:13:02.311Z,17.44
2018-06-27T01:14:02.341Z,17.47
2018-06-27T01:15:03.324Z,17.51
2018-06-27T01:16:02.469Z,17.50
2018-06-27T01:17:02.490Z,17.53
2018-06-27T01:18:02.565Z,17.44
2018-06-27T01:19:02.590Z,17.47
2018-06-27T01:20:02.687Z,17.53
2018-06-27T01:21:02.689Z,17.47
2018-06-27T01:22:02.858Z,17.48
2018-06-27T01:23:02.789Z,17.46
2018-06-27T01:24:02.844Z,17.41
2018-06-27T01:25:02.889Z,17.38
2018-06-27T01:26:02.941Z,17.50
2018-06-27T01:27:03.024Z,17.43
2018-06-27T01:28:03.037Z,17.44
2018-06-27T01:29:03.090Z,17.36
2018-06-27T01:30:03.142Z,17.40
2018-06-27T01:31:03.187Z,17.44
2018-06-27T01:32:03.276Z,17.44
2018-06-27T01:33:03.286Z,17.35
2018-06-27T01:34:03.344Z,17.41
2018-06-27T01:35:03.388Z,17.32
2018-06-27T01:36:03.437Z,17.30
2018-06-27T01:37:03.516Z,17.29
2018-06-27T01:38:03.538Z,17.30
2018-06-27T01:39:03.596Z,17.40
2018-06-27T01:40:03.635Z,17.26
2018-06-27T01:41:03.686Z,17.35
2018-06-27T01:42:03.767Z,17.36
2018-06-27T01:43:03.782Z,17.26
2018-06-27T01:44:03.833Z,17.26
2018-06-27T01:45:03.882Z,17.23
2018-06-27T01:46:03.935Z,17.22
2018-06-27T01:47:04.023Z,17.23
2018-06-27T01:48:04.535Z,17.20
2018-06-27T01:49:04.081Z,17.23
2018-06-27T01:50:04.131Z,17.20
2018-06-27T01:51:04.181Z,17.22
2018-06-27T01:52:04.268Z,17.26
2018-06-27T01:53:04.279Z,17.29
2018-06-27T01:54:04.332Z,17.14
2018-06-27T01:55:04.381Z,17.17
2018-06-27T01:56:04.432Z,17.15
2018-06-27T01:57:04.504Z,17.13
2018-06-27T01:58:04.528Z,17.13
2018-06-27T01:59:04.582Z,17.13
2018-06-27T02:00:04.653Z,17.10
2018-06-27T02:01:04.677Z,17.13
2018-06-27T02:02:04.727Z,17.14
2018-06-27T02:03:04.801Z,17.13
2018-06-27T02:04:04.828Z,17.13
2018-06-27T02:05:05.537Z,17.04
2018-06-27T02:06:04.949Z,17.06
2018-06-27T02:07:04.975Z,17.03
2018-06-27T02:08:05.048Z,17.00
2018-06-27T02:09:05.073Z,17.03
2018-06-27T02:10:05.125Z,17.03
2018-06-27T02:11:05.172Z,17.03
2018-06-27T02:12:05.223Z,16.93
2018-06-27T02:13:05.300Z,16.93
2018-06-27T02:14:05.327Z,17.00
2018-06-27T02:15:05.373Z,16.90
2018-06-27T02:16:05.421Z,17.00
2018-06-27T02:17:05.496Z,16.92
2018-06-27T02:18:05.520Z,16.93
2018-06-27T02:19:05.569Z,16.96
2018-06-27T02:20:05.650Z,16.96
2018-06-27T02:21:05.668Z,16.95
2018-06-27T02:22:05.741Z,16.96
2018-06-27T02:23:05.770Z,16.89
2018-06-27T02:24:05.820Z,16.85
2018-06-27T02:25:05.893Z,16.88
2018-06-27T02:26:05.915Z,16.92
2018-06-27T02:27:06.006Z,16.93
2018-06-27T02:28:06.018Z,16.80
2018-06-27T02:29:06.068Z,16.83
2018-06-27T02:30:06.117Z,16.86
2018-06-27T02:31:06.164Z,16.80
2018-06-27T02:32:06.253Z,16.80
2018-06-27T02:33:06.269Z,16.83
2018-06-27T02:34:06.314Z,16.83
2018-06-27T02:35:06.363Z,16.86
2018-06-27T02:36:06.413Z,16.80
2018-06-27T02:37:06.491Z,16.81
2018-06-27T02:38:06.541Z,16.75
2018-06-27T02:39:06.561Z,16.80
2018-06-27T02:40:06.612Z,16.83
2018-06-27T02:41:06.660Z,16.88
2018-06-27T02:42:06.712Z,16.93
2018-06-27T02:43:06.795Z,16.90
2018-06-27T02:44:06.808Z,16.83
2018-06-27T02:45:06.860Z,16.78
2018-06-27T02:46:06.909Z,16.77
2018-06-27T02:47:06.960Z,16.80
2018-06-27T02:48:07.039Z,16.80
2018-06-27T02:49:07.060Z,16.88
2018-06-27T02:50:07.106Z,16.78
2018-06-27T02:51:07.158Z,16.89
2018-06-27T02:52:07.205Z,16.83
2018-06-27T02:53:07.295Z,16.74
2018-06-27T02:54:07.304Z,16.75
2018-06-27T02:55:07.355Z,16.83
2018-06-27T02:56:07.404Z,16.86
2018-06-27T02:57:07.456Z,16.80
2018-06-27T02:58:07.524Z,16.89
2018-06-27T02:59:07.578Z,16.93
2018-06-27T03:00:07.602Z,16.86
2018-06-27T03:01:07.651Z,16.88
2018-06-27T03:02:07.706Z,16.96
2018-06-27T03:03:07.756Z,16.93
2018-06-27T03:04:07.833Z,16.90
2018-06-27T03:05:07.852Z,16.88
2018-06-27T03:06:07.903Z,16.90
2018-06-27T03:07:07.950Z,16.92
2018-06-27T03:08:08.001Z,16.89
2018-06-27T03:09:08.087Z,16.80
2018-06-27T03:10:08.101Z,16.83
2018-06-27T03:11:08.150Z,16.67
2018-06-27T03:12:08.201Z,16.62
2018-06-27T03:13:08.274Z,16.59
2018-06-27T03:14:08.326Z,16.63
2018-06-27T03:15:08.371Z,16.62
2018-06-27T03:16:08.399Z,16.63
2018-06-27T03:17:08.446Z,16.59
2018-06-27T03:18:08.493Z,16.67
2018-06-27T03:19:08.543Z,16.65
2018-06-27T03:20:08.623Z,16.60
2018-06-27T03:21:08.647Z,16.56
2018-06-27T03:22:08.693Z,16.53
2018-06-27T03:23:08.750Z,16.56
2018-06-27T03:24:08.792Z,16.42
2018-06-27T03:25:08.883Z,16.50
2018-06-27T03:26:08.893Z,16.45
2018-06-27T03:27:08.941Z,16.41
2018-06-27T03:28:08.989Z,16.41
2018-06-27T03:29:09.039Z,16.48
2018-06-27T03:30:09.114Z,16.42
2018-06-27T03:31:09.166Z,16.55
2018-06-27T03:32:09.190Z,16.56
2018-06-27T03:33:09.237Z,16.65
2018-06-27T03:34:09.286Z,16.55
2018-06-27T03:35:09.360Z,16.68
2018-06-27T03:36:09.411Z,16.60
2018-06-27T03:37:09.437Z,16.67
2018-06-27T03:38:09.485Z,16.74
2018-06-27T03:39:09.537Z,16.67
2018-06-27T03:40:09.609Z,16.68
2018-06-27T03:41:09.657Z,16.70
2018-06-27T03:42:09.682Z,16.68
2018-06-27T03:43:09.733Z,16.68
2018-06-27T03:44:09.783Z,16.63
2018-06-27T03:45:09.833Z,16.78
2018-06-27T03:46:10.591Z,16.71
2018-06-27T03:47:09.934Z,16.71
2018-06-27T03:48:09.983Z,16.75
2018-06-27T03:49:10.028Z,16.74
2018-06-27T03:50:10.087Z,16.80
2018-06-27T03:51:10.155Z,16.70
2018-06-27T03:52:10.201Z,16.70
2018-06-27T03:53:10.226Z,16.68
2018-06-27T03:54:10.278Z,16.70
2018-06-27T03:55:10.327Z,16.73
2018-06-27T03:56:10.376Z,16.74
2018-06-27T03:57:10.462Z,16.73
2018-06-27T03:58:10.474Z,16.77
2018-06-27T03:59:10.526Z,16.80
2018-06-27T04:00:10.574Z,16.77
2018-06-27T04:01:10.624Z,16.81
2018-06-27T04:02:10.703Z,16.71
2018-06-27T04:03:10.721Z,16.78
2018-06-27T04:04:10.772Z,16.77
2018-06-27T04:05:11.595Z,16.77
2018-06-27T04:06:10.870Z,16.85
2018-06-27T04:07:10.945Z,16.86
2018-06-27T04:08:10.993Z,16.89
2018-06-27T04:09:11.028Z,16.92
2018-06-27T04:10:11.068Z,17.00
2018-06-27T04:11:11.123Z,17.06
2018-06-27T04:12:11.170Z,17.06
2018-06-27T04:13:11.295Z,17.00
2018-06-27T04:14:11.267Z,17.08
2018-06-27T04:15:11.317Z,17.08
2018-06-27T04:16:11.367Z,17.07
2018-06-27T04:17:11.415Z,17.14
2018-06-27T04:18:11.492Z,17.14
2018-06-27T04:19:11.518Z,17.22
2018-06-27T04:20:11.624Z,17.08
2018-06-27T04:21:11.614Z,17.17
2018-06-27T04:22:11.666Z,17.28
2018-06-27T04:23:11.739Z,17.22
2018-06-27T04:24:11.799Z,17.29
2018-06-27T04:25:11.815Z,17.23
2018-06-27T04:26:11.869Z,17.32
2018-06-27T04:27:11.913Z,17.35
2018-06-27T04:28:11.976Z,17.29
2018-06-27T04:29:12.051Z,17.33
2018-06-27T04:30:12.061Z,17.38
2018-06-27T04:31:12.112Z,17.46
2018-06-27T04:32:12.163Z,17.54
2018-06-27T04:33:12.211Z,17.53
2018-06-27T04:34:12.287Z,17.53
2018-06-27T04:35:12.310Z,17.57
2018-06-27T04:36:12.420Z,17.54
2018-06-27T04:37:12.410Z,17.59
2018-06-27T04:38:12.460Z,17.62
2018-06-27T04:39:12.539Z,17.63
2018-06-27T04:40:12.560Z,17.67
2018-06-27T04:41:12.608Z,17.71
2018-06-27T04:42:12.660Z,17.63
2018-06-27T04:43:12.727Z,17.71
2018-06-27T04:44:12.783Z,17.69
2018-06-27T04:45:12.812Z,17.70
2018-06-27T04:46:12.885Z,17.73
2018-06-27T04:47:12.910Z,17.69
2018-06-27T04:48:12.961Z,17.74
2018-06-27T04:49:13.011Z,17.74
2018-06-27T04:50:13.063Z,17.73
2018-06-27T04:51:13.132Z,17.73
2018-06-27T04:52:13.159Z,17.71
2018-06-27T04:53:13.206Z,17.67
2018-06-27T04:54:13.261Z,17.73
2018-06-27T04:55:13.333Z,17.70
2018-06-27T04:56:13.361Z,17.64
2018-06-27T04:57:13.406Z,17.66
2018-06-27T04:58:13.460Z,17.67
2018-06-27T04:59:13.510Z,17.71
2018-06-27T05:00:13.599Z,17.63
2018-06-27T05:01:13.607Z,17.67
2018-06-27T05:02:13.658Z,17.63
2018-06-27T05:03:13.708Z,17.67
2018-06-27T05:04:13.759Z,17.64
2018-06-27T05:05:13.830Z,17.69
2018-06-27T05:06:13.857Z,17.66
2018-06-27T05:07:13.936Z,17.64
2018-06-27T05:08:13.958Z,17.66
2018-06-27T05:09:14.010Z,17.64
2018-06-27T05:10:14.057Z,17.76
2018-06-27T05:11:14.138Z,17.71
2018-06-27T05:12:14.165Z,17.73
2018-06-27T05:13:14.210Z,17.76
2018-06-27T05:14:14.259Z,17.81
2018-06-27T05:15:14.307Z,17.84
2018-06-27T05:16:14.384Z,17.88
2018-06-27T05:17:14.446Z,17.85
2018-06-27T05:18:14.458Z,18.02
2018-06-27T05:19:14.506Z,18.03
2018-06-27T05:20:14.557Z,18.06
2018-06-27T05:21:14.607Z,18.07
2018-06-27T05:22:14.681Z,18.13
2018-06-27T05:23:14.708Z,18.24
2018-06-27T05:24:14.758Z,18.21
2018-06-27T05:25:14.809Z,18.28
2018-06-27T05:26:14.858Z,18.27
2018-06-27T05:27:14.950Z,18.37
2018-06-27T05:28:15.603Z,18.34
2018-06-27T05:29:18.614Z,18.34
2018-06-27T05:30:15.058Z,18.42
2018-06-27T05:31:15.111Z,18.61
2018-06-27T05:32:15.182Z,18.49
2018-06-27T05:33:15.208Z,18.57
2018-06-27T05:34:15.260Z,18.46
2018-06-27T05:35:15.308Z,18.64
2018-06-27T05:36:15.358Z,18.65
2018-06-27T05:37:15.432Z,18.61
2018-06-27T05:38:15.460Z,18.64
2018-06-27T05:39:15.531Z,18.68
2018-06-27T05:40:15.559Z,18.72
2018-06-27T05:41:15.609Z,18.68
2018-06-27T05:42:15.659Z,18.76
2018-06-27T05:43:15.710Z,18.79
2018-06-27T05:44:15.852Z,18.79
2018-06-27T05:45:15.813Z,18.91
2018-06-27T05:46:15.861Z,18.91
2018-06-27T05:47:15.911Z,18.86
2018-06-27T05:48:15.961Z,18.84
2018-06-27T05:49:16.588Z,18.86
2018-06-27T05:50:16.065Z,18.87
2018-06-27T05:51:16.111Z,18.94
2018-06-27T05:52:16.164Z,18.91
2018-06-27T05:53:16.244Z,18.94
2018-06-27T05:54:16.262Z,18.98
2018-06-27T05:55:16.313Z,18.87
2018-06-27T05:56:17.123Z,18.87
2018-06-27T05:57:16.414Z,18.91
2018-06-27T05:58:16.528Z,18.90
2018-06-27T05:59:16.512Z,18.84
2018-06-27T06:00:16.565Z,18.87
2018-06-27T06:01:16.614Z,18.80
2018-06-27T06:02:16.668Z,18.76
2018-06-27T06:03:16.741Z,18.86
2018-06-27T06:04:16.778Z,18.84
2018-06-27T06:05:16.842Z,18.90
2018-06-27T06:06:16.865Z,18.84
2018-06-27T06:07:16.915Z,18.90
2018-06-27T06:08:16.967Z,18.95
2018-06-27T06:09:17.047Z,18.95
2018-06-27T06:10:17.089Z,19.10
2018-06-27T06:11:17.189Z,19.08
2018-06-27T06:12:17.168Z,19.11
2018-06-27T06:13:17.216Z,19.13
2018-06-27T06:14:17.302Z,19.23
2018-06-27T06:15:17.318Z,19.28
2018-06-27T06:16:17.373Z,19.42
2018-06-27T06:17:18.095Z,19.43
2018-06-27T06:18:17.472Z,19.50
2018-06-27T06:19:17.715Z,19.47
2018-06-27T06:20:17.572Z,19.43
2018-06-27T06:21:17.623Z,19.55
2018-06-27T06:22:17.670Z,19.65
2018-06-27T06:23:17.724Z,19.76
2018-06-27T06:24:17.813Z,19.66
2018-06-27T06:25:21.604Z,19.68
2018-06-27T06:26:17.874Z,19.72
2018-06-27T06:27:17.925Z,19.63
2018-06-27T06:28:17.976Z,19.60
2018-06-27T06:29:18.099Z,19.76
2018-06-27T06:30:18.079Z,19.69
2018-06-27T06:31:18.149Z,19.78
2018-06-27T06:32:18.291Z,19.75
2018-06-27T06:33:18.228Z,19.78
2018-06-27T06:34:18.279Z,19.93
2018-06-27T06:35:18.333Z,20.03
2018-06-27T06:36:18.437Z,20.12
2018-06-27T06:37:18.436Z,20.24
2018-06-27T06:38:19.101Z,20.15
2018-06-27T06:39:19.101Z,20.25
2018-06-27T06:40:18.586Z,20.16
2018-06-27T06:41:18.669Z,20.23
2018-06-27T06:42:18.687Z,20.24
2018-06-27T06:43:19.121Z,20.28
2018-06-27T06:44:18.792Z,20.51
2018-06-27T06:45:18.846Z,20.54
2018-06-27T06:46:18.914Z,20.61
2018-06-27T06:47:18.967Z,20.83
2018-06-27T06:48:18.998Z,20.89
2018-06-27T06:49:19.049Z,21.09
2018-06-27T06:50:19.095Z,21.59
2018-06-27T06:51:19.152Z,22.06
2018-06-27T06:52:19.224Z,22.64
2018-06-27T06:53:19.249Z,23.19
2018-06-27T06:54:19.300Z,23.62
2018-06-27T06:55:19.356Z,23.97
2018-06-27T06:56:19.406Z,24.32
2018-06-27T06:57:19.496Z,24.60
2018-06-27T06:58:19.511Z,24.98
2018-06-27T06:59:19.562Z,25.30
2018-06-27T07:00:20.109Z,25.28
2018-06-27T07:01:19.665Z,25.24
2018-06-27T07:02:19.742Z,25.27
2018-06-27T07:03:19.773Z,25.47
2018-06-27T07:04:19.827Z,25.72
2018-06-27T07:05:19.875Z,25.98
2018-06-27T07:06:19.932Z,25.94
2018-06-27T07:07:20.020Z,25.94
2018-06-27T07:08:20.615Z,26.29
2018-06-27T07:09:20.087Z,26.24
2018-06-27T07:10:20.140Z,26.31
2018-06-27T07:11:20.279Z,26.37
2018-06-27T07:12:20.271Z,26.57
2018-06-27T07:13:20.302Z,26.67
2018-06-27T07:14:20.376Z,26.99
2018-06-27T07:15:20.406Z,27.11
2018-06-27T07:16:20.463Z,27.19
2018-06-27T07:17:21.147Z,27.54
2018-06-27T07:18:20.593Z,27.51
2018-06-27T07:19:20.621Z,27.74
2018-06-27T07:20:20.675Z,27.84
2018-06-27T07:21:20.728Z,27.84
2018-06-27T07:22:20.784Z,27.98
2018-06-27T07:23:20.865Z,28.16
2018-06-27T07:24:20.899Z,28.41
2018-06-27T07:25:20.985Z,28.47
2018-06-27T07:26:20.999Z,28.19
2018-06-27T07:27:21.055Z,28.28
2018-06-27T07:28:21.109Z,28.19
2018-06-27T07:29:21.165Z,28.16
2018-06-27T07:30:21.247Z,28.10
2018-06-27T07:31:21.274Z,27.91
2018-06-27T07:32:21.330Z,27.58
2018-06-27T07:33:21.381Z,27.26
2018-06-27T07:34:22.424Z,27.01
2018-06-27T07:35:21.516Z,26.77
2018-06-27T07:36:22.423Z,26.84
2018-06-27T07:37:21.601Z,26.92
2018-06-27T07:38:21.657Z,26.87
2018-06-27T07:39:21.736Z,27.11
2018-06-27T07:40:21.765Z,27.17
2018-06-27T07:41:21.819Z,27.23
2018-06-27T07:42:21.875Z,27.38
2018-06-27T07:43:21.932Z,27.66
2018-06-27T07:44:22.023Z,27.84
2018-06-27T07:45:22.040Z,28.11
2018-06-27T07:46:22.098Z,28.32
2018-06-27T07:47:22.147Z,28.44
2018-06-27T07:48:22.205Z,28.51
2018-06-27T07:49:22.280Z,28.66
2018-06-27T07:50:22.312Z,28.36
2018-06-27T07:51:22.391Z,28.32
2018-06-27T07:52:23.130Z,28.43
2018-06-27T07:53:23.427Z,28.43
2018-06-27T07:54:23.130Z,28.43
2018-06-27T07:55:22.614Z,28.68
2018-06-27T07:56:22.647Z,28.72
2018-06-27T07:57:22.702Z,28.70
2018-06-27T07:58:22.755Z,28.46
2018-06-27T07:59:22.812Z,28.73
2018-06-27T08:00:22.891Z,28.59
2018-06-27T08:01:22.922Z,27.69
2018-06-27T08:02:22.976Z,27.64
2018-06-27T08:03:23.032Z,27.38
2018-06-27T08:04:23.087Z,27.16
2018-06-27T08:05:23.177Z,27.31
2018-06-27T08:06:24.136Z,27.16
2018-06-27T08:07:23.256Z,27.29
2018-06-27T08:08:23.309Z,27.71
2018-06-27T08:09:23.371Z,27.99
2018-06-27T08:10:23.456Z,28.03
2018-06-27T08:11:23.478Z,28.21
2018-06-27T08:12:23.567Z,28.16
2018-06-27T08:13:23.591Z,28.11
2018-06-27T08:14:23.645Z,27.67
2018-06-27T08:15:23.728Z,27.64
2018-06-27T08:16:23.753Z,27.88
2018-06-27T08:17:23.807Z,27.58
2018-06-27T08:18:23.869Z,27.31
2018-06-27T08:19:24.647Z,27.47
2018-06-27T08:20:24.013Z,27.39
2018-06-27T08:21:24.028Z,27.51
2018-06-27T08:22:24.085Z,27.21
2018-06-27T08:23:24.141Z,27.57
2018-06-27T08:24:24.200Z,27.77
2018-06-27T08:25:24.297Z,27.69
2018-06-27T08:26:24.463Z,27.84
2018-06-27T08:27:24.361Z,28.10
2018-06-27T08:28:24.419Z,28.21
2018-06-27T08:29:24.500Z,28.16
2018-06-27T08:30:24.559Z,28.17
2018-06-27T08:31:24.589Z,28.07
2018-06-27T08:32:24.663Z,28.09
2018-06-27T08:33:24.694Z,27.89
2018-06-27T08:34:24.750Z,27.82
2018-06-27T08:35:24.831Z,27.86
2018-06-27T08:36:24.863Z,27.70
2018-06-27T08:37:24.917Z,27.35
2018-06-27T08:38:24.973Z,27.67
2018-06-27T08:39:25.064Z,28.07
2018-06-27T08:40:25.082Z,28.10
2018-06-27T08:41:25.142Z,28.33
2018-06-27T08:42:25.193Z,28.13
2018-06-27T08:43:25.251Z,28.60
2018-06-27T08:44:25.399Z,28.56
2018-06-27T08:45:25.360Z,28.58
2018-06-27T08:46:25.420Z,28.33
2018-06-27T08:47:25.503Z,28.26
2018-06-27T08:48:25.529Z,28.33
2018-06-27T08:49:25.588Z,28.53
2018-06-27T08:50:25.642Z,28.72
2018-06-27T08:51:25.699Z,28.53
2018-06-27T08:52:25.779Z,28.36
2018-06-27T08:53:25.809Z,28.32
2018-06-27T08:54:25.866Z,28.31
2018-06-27T08:55:25.950Z,28.46
2018-06-27T08:56:26.681Z,28.35
2018-06-27T08:57:26.690Z,28.25
2018-06-27T08:58:26.090Z,28.17
2018-06-27T08:59:26.147Z,27.92
2018-06-27T09:00:26.247Z,27.76
2018-06-27T09:01:26.260Z,27.89
2018-06-27T09:02:26.316Z,27.82
2018-06-27T09:03:26.372Z,28.07
2018-06-27T09:04:26.431Z,28.09
2018-06-27T09:05:26.520Z,28.16
2018-06-27T09:06:26.541Z,27.82
2018-06-27T09:07:26.599Z,27.86
2018-06-27T09:08:26.653Z,27.99
2018-06-27T09:09:26.711Z,27.73
2018-06-27T09:10:26.791Z,27.77
2018-06-27T09:11:26.825Z,27.58
2018-06-27T09:12:26.880Z,27.38
2018-06-27T09:13:26.937Z,27.28
2018-06-27T09:14:27.014Z,27.24
2018-06-27T09:15:27.049Z,27.24
2018-06-27T09:16:27.103Z,27.23
2018-06-27T09:17:27.185Z,27.42
2018-06-27T09:18:27.219Z,27.48
2018-06-27T09:19:27.272Z,27.54
2018-06-27T09:20:27.329Z,27.62
2018-06-27T09:21:27.390Z,27.46
2018-06-27T09:22:27.464Z,27.54
2018-06-27T09:23:27.497Z,27.70
2018-06-27T09:24:27.554Z,27.91
2018-06-27T09:25:27.612Z,27.79
2018-06-27T09:26:27.667Z,27.86
2018-06-27T09:27:27.748Z,27.70
2018-06-27T09:28:27.780Z,27.42
2018-06-27T09:29:27.839Z,27.26
2018-06-27T09:30:27.917Z,27.16
2018-06-27T09:31:27.947Z,27.42
2018-06-27T09:32:28.010Z,27.51
2018-06-27T09:33:28.062Z,27.67
2018-06-27T09:34:28.116Z,27.39
2018-06-27T09:35:28.196Z,27.42
2018-06-27T09:36:28.234Z,27.59
2018-06-27T09:37:30.178Z,27.86
2018-06-27T09:38:28.386Z,27.99
2018-06-27T09:39:28.400Z,28.19
2018-06-27T09:40:28.462Z,28.29
2018-06-27T09:41:28.512Z,28.43
2018-06-27T09:42:28.574Z,28.60
2018-06-27T09:43:28.653Z,28.85
2018-06-27T09:44:28.683Z,29.03
2018-06-27T09:45:28.739Z,29.15
2018-06-27T09:46:28.820Z,29.26
2018-06-27T09:47:28.855Z,28.87
2018-06-27T09:48:28.935Z,28.36
2018-06-27T09:49:28.969Z,28.33
2018-06-27T09:50:29.115Z,28.29
2018-06-27T09:51:29.104Z,28.23
2018-06-27T09:52:29.140Z,28.35
2018-06-27T09:53:29.195Z,28.33
2018-06-27T09:54:29.255Z,28.41
2018-06-27T09:55:29.311Z,28.32
2018-06-27T09:56:29.397Z,28.31
2018-06-27T09:57:29.428Z,28.50
2018-06-27T09:58:29.488Z,28.62
2018-06-27T09:59:29.566Z,28.59
2018-06-27T10:00:29.602Z,28.50
2018-06-27T10:01:29.656Z,28.63
2018-06-27T10:02:29.719Z,28.81
2018-06-27T10:03:29.767Z,29.20
2018-06-27T10:04:29.854Z,29.37
2018-06-27T10:05:29.883Z,29.33
2018-06-27T10:06:29.950Z,29.34
2018-06-27T10:07:29.997Z,29.35
2018-06-27T10:08:30.082Z,28.85
2018-06-27T10:09:30.136Z,28.66
2018-06-27T10:10:30.170Z,28.43
2018-06-27T10:11:30.231Z,28.31
2018-06-27T10:12:30.293Z,28.23
2018-06-27T10:13:30.367Z,28.29
2018-06-27T10:14:30.400Z,28.54
2018-06-27T10:15:30.466Z,28.63
2018-06-27T10:16:30.519Z,28.70
2018-06-27T10:17:30.576Z,28.44
2018-06-27T10:18:30.670Z,28.43
2018-06-27T10:19:30.688Z,28.66
2018-06-27T10:20:30.746Z,28.72
2018-06-27T10:21:30.803Z,28.53
2018-06-27T10:22:30.969Z,28.13
2018-06-27T10:23:30.942Z,27.94
2018-06-27T10:24:30.979Z,27.84
2018-06-27T10:25:31.069Z,28.07
2018-06-27T10:26:31.090Z,28.09
2018-06-27T10:27:31.149Z,28.16
2018-06-27T10:28:31.217Z,28.21
2018-06-27T10:29:31.264Z,28.62
2018-06-27T10:30:31.348Z,28.80
2018-06-27T10:31:31.381Z,28.96
2018-06-27T10:32:31.435Z,28.97
2018-06-27T10:33:31.492Z,29.19
2018-06-27T10:34:31.574Z,29.38
2018-06-27T10:35:31.649Z,29.59
2018-06-27T10:36:31.665Z,29.82
2018-06-27T10:37:31.748Z,29.66
2018-06-27T10:38:31.782Z,29.60
2018-06-27T10:39:31.844Z,29.62
2018-06-27T10:40:31.930Z,29.59
2018-06-27T10:41:31.959Z,29.47
2018-06-27T10:42:32.011Z,29.44
2018-06-27T10:43:32.068Z,29.33
2018-06-27T10:44:32.180Z,29.37
2018-06-27T10:45:32.206Z,29.18
2018-06-27T10:46:32.245Z,29.22
2018-06-27T10:47:32.300Z,29.16
2018-06-27T10:48:32.369Z,29.16
2018-06-27T10:49:32.415Z,29.40
2018-06-27T10:50:32.518Z,29.55
2018-06-27T10:51:32.541Z,29.84
2018-06-27T10:52:32.590Z,30.16
2018-06-27T10:53:32.646Z,30.21
2018-06-27T10:54:32.704Z,30.14
2018-06-27T10:55:32.786Z,30.11
2018-06-27T10:56:32.822Z,30.15
2018-06-27T10:57:32.910Z,30.02
2018-06-27T10:58:32.937Z,29.99
2018-06-27T10:59:32.996Z,30.15
2018-06-27T11:00:33.054Z,30.31
2018-06-27T11:01:33.118Z,30.31
2018-06-27T11:02:33.196Z,30.27
2018-06-27T11:03:33.230Z,29.78
2018-06-27T11:04:33.287Z,29.75
2018-06-27T11:05:33.346Z,29.86
2018-06-27T11:06:33.457Z,30.09
2018-06-27T11:07:33.463Z,30.43
2018-06-27T11:08:33.521Z,30.29
2018-06-27T11:09:33.579Z,30.37
2018-06-27T11:10:33.648Z,30.52
2018-06-27T11:11:33.756Z,30.50
2018-06-27T11:12:33.764Z,30.43
2018-06-27T11:13:33.837Z,30.36
2018-06-27T11:14:33.881Z,30.33
2018-06-27T11:15:33.934Z,30.23
2018-06-27T11:16:34.051Z,30.16
2018-06-27T11:17:34.050Z,30.36
2018-06-27T11:18:34.138Z,30.43
2018-06-27T11:19:34.169Z,30.52
2018-06-27T11:20:34.227Z,30.62
2018-06-27T11:21:34.284Z,30.54
2018-06-27T11:22:34.344Z,30.29
2018-06-27T11:23:34.429Z,30.49
2018-06-27T11:24:34.463Z,30.52
2018-06-27T11:25:34.520Z,30.57
2018-06-27T11:26:46.608Z,30.16
2018-06-27T11:27:34.642Z,29.96
2018-06-27T11:28:34.729Z,30.05
2018-06-27T11:29:34.759Z,30.14
2018-06-27T11:30:34.818Z,30.15
2018-06-27T11:31:34.893Z,29.81
2018-06-27T11:32:34.935Z,29.71
2018-06-27T11:33:35.025Z,29.68
2018-06-27T11:34:35.052Z,29.87
2018-06-27T11:35:35.789Z,29.75
2018-06-27T11:36:35.169Z,29.96
2018-06-27T11:37:36.285Z,29.86
2018-06-27T11:38:35.903Z,29.63
2018-06-27T11:39:36.786Z,29.72
2018-06-27T11:40:35.405Z,29.20
2018-06-27T11:41:35.463Z,28.82
2018-06-27T11:42:36.092Z,28.84
2018-06-27T11:43:36.791Z,28.96
2018-06-27T11:44:35.683Z,29.13
2018-06-27T11:45:35.700Z,29.20
2018-06-27T11:46:35.758Z,29.23
2018-06-27T11:47:35.816Z,29.13
2018-06-27T11:48:35.908Z,29.18
2018-06-27T11:49:35.937Z,29.40
2018-06-27T11:50:35.992Z,29.43
2018-06-27T11:51:36.051Z,29.65
2018-06-27T11:52:36.109Z,29.81
2018-06-27T11:53:36.209Z,29.79
2018-06-27T11:54:36.226Z,29.84
2018-06-27T11:55:36.285Z,29.66
2018-06-27T11:56:36.349Z,29.50
2018-06-27T11:57:40.296Z,29.70
2018-06-27T11:58:37.318Z,29.90
2018-06-27T11:59:36.541Z,30.15
2018-06-27T12:00:36.577Z,30.29
2018-06-27T12:01:36.635Z,30.49
2018-06-27T12:02:36.696Z,30.71
2018-06-27T12:03:36.753Z,30.89
2018-06-27T12:04:36.846Z,30.81
2018-06-27T12:05:36.871Z,30.71
2018-06-27T12:06:36.934Z,30.56
2018-06-27T12:07:37.803Z,30.65
2018-06-27T12:08:37.050Z,30.59
2018-06-27T12:09:37.150Z,30.30
2018-06-27T12:10:37.172Z,30.36
2018-06-27T12:11:37.232Z,30.33
2018-06-27T12:12:37.292Z,30.29
2018-06-27T12:13:37.349Z,29.53
2018-06-27T12:14:37.443Z,29.13
2018-06-27T12:15:37.489Z,29.20
2018-06-27T12:16:37.531Z,29.53
2018-06-27T12:17:37.585Z,29.87
2018-06-27T12:18:37.648Z,30.15
2018-06-27T12:19:38.839Z,30.14
2018-06-27T12:20:37.788Z,30.36
2018-06-27T12:21:37.848Z,30.74
2018-06-27T12:22:37.888Z,30.87
2018-06-27T12:23:37.944Z,31.28
2018-06-27T12:24:38.005Z,30.99
2018-06-27T12:25:38.062Z,30.75
2018-06-27T12:26:38.164Z,29.86
2018-06-27T12:27:38.183Z,29.41
2018-06-27T12:28:38.248Z,28.72
2018-06-27T12:29:38.306Z,28.13
2018-06-27T12:30:38.363Z,27.89
2018-06-27T12:31:40.316Z,27.57
2018-06-27T12:32:38.483Z,27.29
2018-06-27T12:33:38.544Z,27.02
2018-06-27T12:34:38.599Z,26.77
2018-06-27T12:35:38.661Z,26.68
2018-06-27T12:36:38.742Z,26.50
2018-06-27T12:37:38.776Z,26.35
2018-06-27T12:38:38.843Z,26.09
2018-06-27T12:39:38.893Z,26.15
2018-06-27T12:40:38.947Z,26.09
2018-06-27T12:41:39.852Z,26.06
2018-06-27T12:42:39.063Z,25.94
2018-06-27T12:43:39.119Z,26.08
2018-06-27T12:44:39.175Z,25.94
2018-06-27T12:45:39.231Z,25.94
2018-06-27T12:46:39.311Z,25.91
2018-06-27T12:47:39.343Z,25.83
2018-06-27T12:48:39.424Z,25.68
2018-06-27T12:49:39.455Z,25.64
2018-06-27T12:50:39.514Z,25.65
2018-06-27T12:51:39.570Z,25.74
2018-06-27T12:52:39.627Z,25.77
2018-06-27T12:53:39.703Z,25.94